sensor_id;sensor_type;location;lat;lon;timestamp;pressure;altitude;pressure_sealevel;temperature;humidity
60371;BME280;48550;40.588;49.684;2023-03-15T00:01:11;102266.31;;;5.34;100.00
60371;BME280;48550;40.588;49.684;2023-03-15T00:03:41;102258.28;;;5.26;100.00
60371;BME280;48550;40.588;49.684;2023-03-15T00:06:07;102250.06;;;5.20;100.00
60371;BME280;48550;40.588;49.684;2023-03-15T00:08:33;102255.47;;;5.28;100.00
60371;BME280;48550;40.588;49.684;2023-03-15T00:10:59;102241.81;;;5.31;100.00
60371;BME280;48550;40.588;49.684;2023-03-15T00:13:26;102253.84;;;5.43;100.00
60371;BME280;48550;40.588;49.684;2023-03-15T00:15:55;102252.97;;;5.26;100.00
60371;BME280;48550;40.588;49.684;2023-03-15T00:18:22;102258.59;;;5.23;100.00
60371;BME280;48550;40.588;49.684;2023-03-15T00:20:48;102247.47;;;5.28;100.00
60371;BME280;48550;40.588;49.684;2023-03-15T00:23:14;102251.16;;;5.35;100.00
60371;BME280;48550;40.588;49.684;2023-03-15T00:25:43;102255.78;;;5.25;100.00
60371;BME280;48550;40.588;49.684;2023-03-15T00:28:09;102245.34;;;5.05;100.00
60371;BME280;48550;40.588;49.684;2023-03-15T00:30:35;102239.56;;;5.10;100.00
60371;BME280;48550;40.588;49.684;2023-03-15T00:33:01;102243.03;;;5.10;100.00
60371;BME280;48550;40.588;49.684;2023-03-15T00:35:30;102228.91;;;5.10;100.00
60371;BME280;48550;40.588;49.684;2023-03-15T00:37:56;102235.50;;;4.98;100.00
60371;BME280;48550;40.588;49.684;2023-03-15T00:40:23;102232.84;;;4.98;100.00
60371;BME280;48550;40.588;49.684;2023-03-15T00:42:49;102224.97;;;4.88;100.00
60371;BME280;48550;40.588;49.684;2023-03-15T00:45:20;102220.81;;;4.86;100.00
60371;BME280;48550;40.588;49.684;2023-03-15T00:47:50;102214.28;;;4.80;100.00
60371;BME280;48550;40.588;49.684;2023-03-15T00:50:16;102212.28;;;4.74;100.00
60371;BME280;48550;40.588;49.684;2023-03-15T00:52:42;102209.97;;;4.79;100.00
60371;BME280;48550;40.588;49.684;2023-03-15T00:55:13;102200.84;;;4.82;100.00
60371;BME280;48550;40.588;49.684;2023-03-15T00:57:43;102204.34;;;4.82;100.00
60371;BME280;48550;40.588;49.684;2023-03-15T01:00:23;102213.50;;;4.88;100.00
60371;BME280;48550;40.588;49.684;2023-03-15T01:02:52;102206.88;;;4.92;100.00
60371;BME280;48550;40.588;49.684;2023-03-15T01:05:18;102202.81;;;4.79;100.00
60371;BME280;48550;40.588;49.684;2023-03-15T01:07:46;102200.78;;;4.73;100.00
60371;BME280;48550;40.588;49.684;2023-03-15T01:10:12;102198.50;;;4.78;100.00
60371;BME280;48550;40.588;49.684;2023-03-15T01:12:38;102205.19;;;4.91;100.00
60371;BME280;48550;40.588;49.684;2023-03-15T01:15:06;102204.28;;;5.08;100.00
60371;BME280;48550;40.588;49.684;2023-03-15T01:17:32;102199.94;;;5.07;100.00
60371;BME280;48550;40.588;49.684;2023-03-15T01:19:59;102206.78;;;5.09;100.00
60371;BME280;48550;40.588;49.684;2023-03-15T01:22:25;102205.28;;;5.07;100.00
60371;BME280;48550;40.588;49.684;2023-03-15T01:24:51;102202.63;;;5.07;100.00
60371;BME280;48550;40.588;49.684;2023-03-15T01:27:17;102196.78;;;5.03;100.00
60371;BME280;48550;40.588;49.684;2023-03-15T01:29:43;102196.25;;;5.00;100.00
60371;BME280;48550;40.588;49.684;2023-03-15T01:32:08;102186.75;;;4.89;100.00
60371;BME280;48550;40.588;49.684;2023-03-15T01:34:35;102190.63;;;5.03;100.00
60371;BME280;48550;40.588;49.684;2023-03-15T01:37:01;102189.13;;;5.00;100.00
60371;BME280;48550;40.588;49.684;2023-03-15T01:39:30;102182.63;;;5.03;100.00
60371;BME280;48550;40.588;49.684;2023-03-15T01:41:55;102192.25;;;4.96;100.00
60371;BME280;48550;40.588;49.684;2023-03-15T01:44:21;102190.59;;;4.95;100.00
60371;BME280;48550;40.588;49.684;2023-03-15T01:46:48;102186.28;;;5.02;100.00
60371;BME280;48550;40.588;49.684;2023-03-15T01:49:16;102189.31;;;5.07;100.00
60371;BME280;48550;40.588;49.684;2023-03-15T01:52:04;102190.00;;;5.17;100.00
60371;BME280;48550;40.588;49.684;2023-03-15T01:54:34;102189.41;;;5.31;100.00
60371;BME280;48550;40.588;49.684;2023-03-15T01:59:33;102176.78;;;5.41;100.00
60371;BME280;48550;40.588;49.684;2023-03-15T02:01:59;102176.47;;;5.53;100.00
60371;BME280;48550;40.588;49.684;2023-03-15T02:04:48;102172.47;;;5.49;100.00
60371;BME280;48550;40.588;49.684;2023-03-15T02:07:17;102174.47;;;5.47;100.00
60371;BME280;48550;40.588;49.684;2023-03-15T02:10:11;102175.00;;;5.58;100.00
60371;BME280;48550;40.588;49.684;2023-03-15T02:12:45;102167.66;;;5.60;100.00
60371;BME280;48550;40.588;49.684;2023-03-15T02:15:13;102170.50;;;5.51;100.00
60371;BME280;48550;40.588;49.684;2023-03-15T02:17:41;102167.47;;;5.46;100.00
60371;BME280;48550;40.588;49.684;2023-03-15T02:20:34;102165.81;;;5.45;100.00
60371;BME280;48550;40.588;49.684;2023-03-15T02:23:23;102170.63;;;5.41;100.00
60371;BME280;48550;40.588;49.684;2023-03-15T02:25:59;102172.63;;;5.39;100.00
60371;BME280;48550;40.588;49.684;2023-03-15T02:28:32;102173.81;;;5.45;100.00
60371;BME280;48550;40.588;49.684;2023-03-15T02:30:58;102174.97;;;5.50;100.00
60371;BME280;48550;40.588;49.684;2023-03-15T02:33:28;102175.66;;;5.52;100.00
60371;BME280;48550;40.588;49.684;2023-03-15T02:35:55;102178.00;;;5.55;100.00
60371;BME280;48550;40.588;49.684;2023-03-15T02:38:21;102175.81;;;5.59;100.00
60371;BME280;48550;40.588;49.684;2023-03-15T02:40:51;102181.81;;;5.61;100.00
60371;BME280;48550;40.588;49.684;2023-03-15T02:43:24;102176.00;;;5.65;100.00
60371;BME280;48550;40.588;49.684;2023-03-15T02:45:51;102169.69;;;5.66;100.00
60371;BME280;48550;40.588;49.684;2023-03-15T02:48:18;102169.00;;;5.72;100.00
60371;BME280;48550;40.588;49.684;2023-03-15T02:50:44;102157.19;;;5.67;100.00
60371;BME280;48550;40.588;49.684;2023-03-15T02:53:10;102167.00;;;5.74;100.00
60371;BME280;48550;40.588;49.684;2023-03-15T02:55:37;102158.53;;;5.79;100.00
60371;BME280;48550;40.588;49.684;2023-03-15T02:58:03;102135.06;;;5.83;100.00
60371;BME280;48550;40.588;49.684;2023-03-15T03:00:29;102141.41;;;5.90;100.00
60371;BME280;48550;40.588;49.684;2023-03-15T03:02:55;102145.94;;;5.97;100.00
60371;BME280;48550;40.588;49.684;2023-03-15T03:05:21;102142.09;;;6.08;100.00
60371;BME280;48550;40.588;49.684;2023-03-15T03:07:46;102132.59;;;6.05;100.00
60371;BME280;48550;40.588;49.684;2023-03-15T03:10:16;102137.09;;;6.13;100.00
60371;BME280;48550;40.588;49.684;2023-03-15T03:12:42;102131.06;;;6.27;100.00
60371;BME280;48550;40.588;49.684;2023-03-15T03:15:09;102130.88;;;6.37;100.00
60371;BME280;48550;40.588;49.684;2023-03-15T03:17:35;102126.81;;;6.57;100.00
60371;BME280;48550;40.588;49.684;2023-03-15T03:20:09;102126.81;;;6.57;100.00
60371;BME280;48550;40.588;49.684;2023-03-15T03:22:37;102108.63;;;6.61;100.00
60371;BME280;48550;40.588;49.684;2023-03-15T03:25:05;102123.63;;;6.62;100.00
60371;BME280;48550;40.588;49.684;2023-03-15T03:27:30;102118.59;;;6.67;100.00
60371;BME280;48550;40.588;49.684;2023-03-15T03:29:57;102126.78;;;6.74;100.00
60371;BME280;48550;40.588;49.684;2023-03-15T03:32:23;102121.28;;;6.75;100.00
60371;BME280;48550;40.588;49.684;2023-03-15T03:34:49;102124.59;;;6.77;100.00
60371;BME280;48550;40.588;49.684;2023-03-15T03:37:18;102124.69;;;6.92;100.00
60371;BME280;48550;40.588;49.684;2023-03-15T03:39:45;102116.66;;;7.00;100.00
60371;BME280;48550;40.588;49.684;2023-03-15T03:42:10;102118.25;;;7.09;100.00
60371;BME280;48550;40.588;49.684;2023-03-15T03:44:36;102114.53;;;7.18;100.00
60371;BME280;48550;40.588;49.684;2023-03-15T03:47:02;102115.72;;;7.16;100.00
60371;BME280;48550;40.588;49.684;2023-03-15T03:49:28;102107.13;;;7.28;100.00
60371;BME280;48550;40.588;49.684;2023-03-15T03:51:54;102101.72;;;7.37;100.00
60371;BME280;48550;40.588;49.684;2023-03-15T03:54:20;102104.00;;;7.48;100.00
60371;BME280;48550;40.588;49.684;2023-03-15T03:56:49;102100.56;;;7.62;100.00
60371;BME280;48550;40.588;49.684;2023-03-15T03:59:15;102097.72;;;7.63;100.00
60371;BME280;48550;40.588;49.684;2023-03-15T04:01:40;102096.63;;;7.73;100.00
60371;BME280;48550;40.588;49.684;2023-03-15T04:04:06;102090.78;;;7.92;100.00
60371;BME280;48550;40.588;49.684;2023-03-15T04:06:32;102083.03;;;7.97;100.00
60371;BME280;48550;40.588;49.684;2023-03-15T04:08:58;102099.66;;;8.07;100.00
60371;BME280;48550;40.588;49.684;2023-03-15T04:11:24;102090.66;;;8.23;100.00
60371;BME280;48550;40.588;49.684;2023-03-15T04:13:54;102089.50;;;8.40;100.00
60371;BME280;48550;40.588;49.684;2023-03-15T04:16:20;102093.25;;;8.60;100.00
60371;BME280;48550;40.588;49.684;2023-03-15T04:18:46;102085.66;;;8.79;100.00
60371;BME280;48550;40.588;49.684;2023-03-15T04:21:11;102084.34;;;8.89;100.00
60371;BME280;48550;40.588;49.684;2023-03-15T04:23:37;102072.38;;;8.71;100.00
60371;BME280;48550;40.588;49.684;2023-03-15T04:26:03;102082.69;;;8.88;100.00
60371;BME280;48550;40.588;49.684;2023-03-15T04:28:32;102079.94;;;8.97;100.00
60371;BME280;48550;40.588;49.684;2023-03-15T04:30:58;102074.66;;;9.03;100.00
60371;BME280;48550;40.588;49.684;2023-03-15T04:33:24;102074.72;;;9.10;100.00
60371;BME280;48550;40.588;49.684;2023-03-15T04:35:50;102076.06;;;9.20;100.00
60371;BME280;48550;40.588;49.684;2023-03-15T04:38:19;102076.59;;;9.31;100.00
60371;BME280;48550;40.588;49.684;2023-03-15T04:40:51;102077.91;;;9.41;100.00
60371;BME280;48550;40.588;49.684;2023-03-15T04:43:19;102071.16;;;9.45;100.00
60371;BME280;48550;40.588;49.684;2023-03-15T04:45:45;102073.94;;;9.59;100.00
60371;BME280;48550;40.588;49.684;2023-03-15T04:48:11;102075.50;;;9.68;100.00
60371;BME280;48550;40.588;49.684;2023-03-15T04:50:37;102069.66;;;9.85;100.00
60371;BME280;48550;40.588;49.684;2023-03-15T04:53:02;102064.25;;;10.07;100.00
60371;BME280;48550;40.588;49.684;2023-03-15T04:55:28;102074.56;;;10.38;100.00
60371;BME280;48550;40.588;49.684;2023-03-15T04:57:54;102060.63;;;10.49;100.00
60371;BME280;48550;40.588;49.684;2023-03-15T05:00:21;102057.38;;;10.60;99.40
60371;BME280;48550;40.588;49.684;2023-03-15T05:02:47;102060.94;;;10.74;100.00
60371;BME280;48550;40.588;49.684;2023-03-15T05:05:19;102051.06;;;10.94;98.64
60371;BME280;48550;40.588;49.684;2023-03-15T05:07:47;102051.31;;;11.06;94.89
60371;BME280;48550;40.588;49.684;2023-03-15T05:10:12;102057.56;;;11.20;91.18
60371;BME280;48550;40.588;49.684;2023-03-15T05:12:38;102051.38;;;11.39;89.67
60371;BME280;48550;40.588;49.684;2023-03-15T05:15:04;102051.41;;;11.65;87.12
60371;BME280;48550;40.588;49.684;2023-03-15T05:17:30;102055.81;;;12.64;77.50
60371;BME280;48550;40.588;49.684;2023-03-15T05:19:58;102052.53;;;14.31;64.98
60371;BME280;48550;40.588;49.684;2023-03-15T05:22:26;102053.56;;;14.85;58.81
60371;BME280;48550;40.588;49.684;2023-03-15T05:24:52;102049.28;;;16.02;54.97
60371;BME280;48550;40.588;49.684;2023-03-15T05:27:18;102049.84;;;16.39;51.98
60371;BME280;48550;40.588;49.684;2023-03-15T05:29:44;102034.13;;;16.93;51.13
60371;BME280;48550;40.588;49.684;2023-03-15T05:32:10;102046.50;;;17.96;47.56
60371;BME280;48550;40.588;49.684;2023-03-15T05:34:36;102052.56;;;17.36;48.52
60371;BME280;48550;40.588;49.684;2023-03-15T05:37:02;102051.03;;;18.29;46.90
60371;BME280;48550;40.588;49.684;2023-03-15T05:39:27;102043.44;;;18.70;45.87
60371;BME280;48550;40.588;49.684;2023-03-15T05:41:54;102049.44;;;18.33;45.82
60371;BME280;48550;40.588;49.684;2023-03-15T05:44:19;102039.91;;;18.96;44.85
60371;BME280;48550;40.588;49.684;2023-03-15T05:46:47;102045.97;;;18.38;45.04
60371;BME280;48550;40.588;49.684;2023-03-15T05:49:13;102031.78;;;19.01;44.53
60371;BME280;48550;40.588;49.684;2023-03-15T05:51:38;102043.00;;;19.64;43.61
60371;BME280;48550;40.588;49.684;2023-03-15T05:54:04;102036.66;;;19.53;43.33
60371;BME280;48550;40.588;49.684;2023-03-15T05:56:30;102034.34;;;18.86;45.02
60371;BME280;48550;40.588;49.684;2023-03-15T05:58:55;102015.50;;;18.58;46.23
60371;BME280;48550;40.588;49.684;2023-03-15T06:01:22;102021.94;;;18.68;45.23
60371;BME280;48550;40.588;49.684;2023-03-15T06:03:48;102015.44;;;18.31;46.97
60371;BME280;48550;40.588;49.684;2023-03-15T06:06:13;102013.22;;;18.06;47.49
60371;BME280;48550;40.588;49.684;2023-03-15T06:08:39;102013.47;;;18.48;46.30
60371;BME280;48550;40.588;49.684;2023-03-15T06:11:05;102010.06;;;18.36;46.59
60371;BME280;48550;40.588;49.684;2023-03-15T06:13:31;102006.91;;;18.44;46.54
60371;BME280;48550;40.588;49.684;2023-03-15T06:15:57;102006.09;;;17.33;49.74
60371;BME280;48550;40.588;49.684;2023-03-15T06:18:23;101994.41;;;17.83;49.04
60371;BME280;48550;40.588;49.684;2023-03-15T06:20:49;102004.47;;;18.64;45.65
60371;BME280;48550;40.588;49.684;2023-03-15T06:23:14;102000.44;;;19.53;43.99
60371;BME280;48550;40.588;49.684;2023-03-15T06:25:40;101988.09;;;19.45;44.08
60371;BME280;48550;40.588;49.684;2023-03-15T06:28:06;101989.44;;;19.43;43.87
60371;BME280;48550;40.588;49.684;2023-03-15T06:30:31;101983.41;;;20.20;42.48
60371;BME280;48550;40.588;49.684;2023-03-15T06:32:58;101991.59;;;19.41;44.24
60371;BME280;48550;40.588;49.684;2023-03-15T06:35:24;101994.25;;;19.62;42.53
60371;BME280;48550;40.588;49.684;2023-03-15T06:37:50;101994.38;;;19.83;42.82
60371;BME280;48550;40.588;49.684;2023-03-15T06:40:17;101986.06;;;19.62;43.31
60371;BME280;48550;40.588;49.684;2023-03-15T06:42:43;101975.00;;;19.79;43.58
60371;BME280;48550;40.588;49.684;2023-03-15T06:45:09;101962.63;;;19.56;44.17
60371;BME280;48550;40.588;49.684;2023-03-15T06:47:35;101964.94;;;19.80;42.55
60371;BME280;48550;40.588;49.684;2023-03-15T06:50:01;101958.94;;;20.35;42.87
60371;BME280;48550;40.588;49.684;2023-03-15T06:52:26;101961.84;;;21.11;40.49
60371;BME280;48550;40.588;49.684;2023-03-15T06:54:52;101942.09;;;20.53;41.99
60371;BME280;48550;40.588;49.684;2023-03-15T06:57:18;101943.81;;;21.10;40.33
60371;BME280;48550;40.588;49.684;2023-03-15T06:59:44;101939.19;;;21.06;40.46
60371;BME280;48550;40.588;49.684;2023-03-15T07:02:14;101938.34;;;20.95;41.28
60371;BME280;48550;40.588;49.684;2023-03-15T07:04:41;101931.00;;;20.96;41.48
60371;BME280;48550;40.588;49.684;2023-03-15T07:07:09;101932.59;;;21.68;39.30
60371;BME280;48550;40.588;49.684;2023-03-15T07:09:35;101937.75;;;20.73;41.07
60371;BME280;48550;40.588;49.684;2023-03-15T07:12:01;101928.16;;;19.77;44.00
60371;BME280;48550;40.588;49.684;2023-03-15T07:14:26;101917.56;;;20.53;42.36
60371;BME280;48550;40.588;49.684;2023-03-15T07:16:52;101927.41;;;20.70;41.92
60371;BME280;48550;40.588;49.684;2023-03-15T07:19:18;101921.94;;;20.75;42.01
60371;BME280;48550;40.588;49.684;2023-03-15T07:21:44;101927.44;;;21.20;40.89
60371;BME280;48550;40.588;49.684;2023-03-15T07:24:09;101924.72;;;20.90;40.98
60371;BME280;48550;40.588;49.684;2023-03-15T07:26:35;101922.06;;;20.12;42.83
60371;BME280;48550;40.588;49.684;2023-03-15T07:29:01;101915.69;;;19.91;43.57
60371;BME280;48550;40.588;49.684;2023-03-15T07:31:27;101919.75;;;19.42;44.98
60371;BME280;48550;40.588;49.684;2023-03-15T07:33:53;101904.28;;;18.29;48.31
60371;BME280;48550;40.588;49.684;2023-03-15T07:36:18;101893.69;;;18.06;49.58
60371;BME280;48550;40.588;49.684;2023-03-15T07:38:46;101888.13;;;17.57;51.42
60371;BME280;48550;40.588;49.684;2023-03-15T07:41:12;101885.06;;;17.32;53.19
60371;BME280;48550;40.588;49.684;2023-03-15T07:43:38;101888.16;;;17.07;54.84
60371;BME280;48550;40.588;49.684;2023-03-15T07:46:04;101880.44;;;16.82;56.10
60371;BME280;48550;40.588;49.684;2023-03-15T07:48:31;101874.59;;;17.07;55.61
60371;BME280;48550;40.588;49.684;2023-03-15T07:50:56;101870.91;;;17.30;54.80
60371;BME280;48550;40.588;49.684;2023-03-15T07:53:22;101864.84;;;17.23;55.39
60371;BME280;48550;40.588;49.684;2023-03-15T07:55:48;101859.94;;;17.41;54.94
60371;BME280;48550;40.588;49.684;2023-03-15T07:58:14;101853.00;;;17.29;54.34
60371;BME280;48550;40.588;49.684;2023-03-15T08:00:40;101858.41;;;17.29;55.86
60371;BME280;48550;40.588;49.684;2023-03-15T08:03:06;101867.16;;;17.14;56.05
60371;BME280;48550;40.588;49.684;2023-03-15T08:05:33;101864.75;;;17.01;56.20
60371;BME280;48550;40.588;49.684;2023-03-15T08:07:59;101853.97;;;17.06;55.01
60371;BME280;48550;40.588;49.684;2023-03-15T08:10:25;101850.69;;;17.04;55.19
60371;BME280;48550;40.588;49.684;2023-03-15T08:12:51;101844.13;;;17.00;56.76
60371;BME280;48550;40.588;49.684;2023-03-15T08:15:17;101839.69;;;16.94;55.84
60371;BME280;48550;40.588;49.684;2023-03-15T08:17:46;101836.56;;;17.02;55.49
60371;BME280;48550;40.588;49.684;2023-03-15T08:20:13;101837.38;;;17.02;55.33
60371;BME280;48550;40.588;49.684;2023-03-15T08:22:43;101832.13;;;17.12;55.34
60371;BME280;48550;40.588;49.684;2023-03-15T08:25:10;101831.88;;;17.14;55.63
60371;BME280;48550;40.588;49.684;2023-03-15T08:27:37;101837.47;;;17.24;55.47
60371;BME280;48550;40.588;49.684;2023-03-15T08:30:04;101828.06;;;17.32;55.02
60371;BME280;48550;40.588;49.684;2023-03-15T08:32:30;101825.34;;;17.32;55.15
60371;BME280;48550;40.588;49.684;2023-03-15T08:34:56;101829.53;;;17.39;54.47
60371;BME280;48550;40.588;49.684;2023-03-15T08:37:22;101814.38;;;17.22;55.01
60371;BME280;48550;40.588;49.684;2023-03-15T08:39:48;101821.44;;;17.23;55.73
60371;BME280;48550;40.588;49.684;2023-03-15T08:42:22;101819.69;;;17.33;55.49
60371;BME280;48550;40.588;49.684;2023-03-15T08:44:48;101811.97;;;17.25;54.25
60371;BME280;48550;40.588;49.684;2023-03-15T08:47:14;101802.13;;;17.19;55.58
60371;BME280;48550;40.588;49.684;2023-03-15T08:49:39;101801.03;;;17.20;55.09
60371;BME280;48550;40.588;49.684;2023-03-15T08:52:05;101803.66;;;17.32;54.87
60371;BME280;48550;40.588;49.684;2023-03-15T08:54:31;101791.97;;;17.31;54.96
60371;BME280;48550;40.588;49.684;2023-03-15T08:56:57;101792.34;;;17.18;55.73
60371;BME280;48550;40.588;49.684;2023-03-15T08:59:23;101781.41;;;17.13;55.21
60371;BME280;48550;40.588;49.684;2023-03-15T09:01:48;101777.31;;;17.10;55.42
60371;BME280;48550;40.588;49.684;2023-03-15T09:04:14;101782.13;;;17.25;55.56
60371;BME280;48550;40.588;49.684;2023-03-15T09:06:40;101777.38;;;17.15;54.82
60371;BME280;48550;40.588;49.684;2023-03-15T09:09:06;101760.91;;;17.22;55.02
60371;BME280;48550;40.588;49.684;2023-03-15T09:11:32;101759.84;;;17.23;54.84
60371;BME280;48550;40.588;49.684;2023-03-15T09:13:58;101759.34;;;17.26;54.60
60371;BME280;48550;40.588;49.684;2023-03-15T09:16:23;101744.47;;;17.29;54.65
60371;BME280;48550;40.588;49.684;2023-03-15T09:18:49;101735.75;;;17.27;54.07
60371;BME280;48550;40.588;49.684;2023-03-15T09:21:15;101733.78;;;17.22;54.42
60371;BME280;48550;40.588;49.684;2023-03-15T09:23:41;101731.00;;;17.17;54.11
60371;BME280;48550;40.588;49.684;2023-03-15T09:26:07;101736.28;;;17.07;54.67
60371;BME280;48550;40.588;49.684;2023-03-15T09:28:32;101731.53;;;17.14;54.38
60371;BME280;48550;40.588;49.684;2023-03-15T09:30:58;101728.06;;;17.19;54.84
60371;BME280;48550;40.588;49.684;2023-03-15T09:33:24;101720.47;;;17.21;54.37
60371;BME280;48550;40.588;49.684;2023-03-15T09:35:50;101721.31;;;17.21;55.36
60371;BME280;48550;40.588;49.684;2023-03-15T09:38:17;101719.34;;;17.17;54.59
60371;BME280;48550;40.588;49.684;2023-03-15T09:40:43;101716.72;;;17.05;56.22
60371;BME280;48550;40.588;49.684;2023-03-15T09:43:18;101720.06;;;16.90;55.85
60371;BME280;48550;40.588;49.684;2023-03-15T09:49:31;101703.72;;;16.85;56.90
60371;BME280;48550;40.588;49.684;2023-03-15T09:55:21;101700.38;;;16.78;57.84
60371;BME280;48550;40.588;49.684;2023-03-15T09:58:02;101699.47;;;16.72;56.72
60371;BME280;48550;40.588;49.684;2023-03-15T10:00:42;101700.78;;;16.70;56.95
60371;BME280;48550;40.588;49.684;2023-03-15T10:03:25;101700.38;;;16.61;56.88
60371;BME280;48550;40.588;49.684;2023-03-15T10:05:56;101694.69;;;16.63;57.34
60371;BME280;48550;40.588;49.684;2023-03-15T10:08:23;101687.06;;;16.60;58.52
60371;BME280;48550;40.588;49.684;2023-03-15T10:11:00;101681.63;;;16.60;58.18
60371;BME280;48550;40.588;49.684;2023-03-15T10:17:02;101664.59;;;16.42;59.38
60371;BME280;48550;40.588;49.684;2023-03-15T10:19:51;101668.53;;;16.51;59.04
60371;BME280;48550;40.588;49.684;2023-03-15T10:25:03;101652.06;;;16.58;58.65
60371;BME280;48550;40.588;49.684;2023-03-15T10:27:49;101667.31;;;16.42;59.73
60371;BME280;48550;40.588;49.684;2023-03-15T10:35:32;101665.09;;;16.39;60.36
60371;BME280;48550;40.588;49.684;2023-03-15T10:37:58;101651.44;;;16.34;60.96
60371;BME280;48550;40.588;49.684;2023-03-15T10:40:44;101653.19;;;16.40;61.53
60371;BME280;48550;40.588;49.684;2023-03-15T10:43:21;101653.19;;;16.40;61.50
60371;BME280;48550;40.588;49.684;2023-03-15T10:48:27;101646.50;;;16.31;61.20
60371;BME280;48550;40.588;49.684;2023-03-15T10:50:54;101654.47;;;16.21;61.62
60371;BME280;48550;40.588;49.684;2023-03-15T10:53:21;101647.09;;;16.16;61.91
60371;BME280;48550;40.588;49.684;2023-03-15T10:56:00;101645.47;;;16.15;61.51
60371;BME280;48550;40.588;49.684;2023-03-15T10:58:37;101639.06;;;16.21;61.46
60371;BME280;48550;40.588;49.684;2023-03-15T11:01:06;101632.31;;;16.24;61.37
60371;BME280;48550;40.588;49.684;2023-03-15T11:03:33;101639.69;;;16.29;61.10
60371;BME280;48550;40.588;49.684;2023-03-15T11:05:59;101636.44;;;16.27;60.65
60371;BME280;48550;40.588;49.684;2023-03-15T11:08:38;101635.94;;;16.13;60.95
60371;BME280;48550;40.588;49.684;2023-03-15T11:11:05;101643.41;;;16.06;60.93
60371;BME280;48550;40.588;49.684;2023-03-15T11:13:36;101640.88;;;15.99;60.93
60371;BME280;48550;40.588;49.684;2023-03-15T11:18:42;101645.19;;;15.67;63.23
60371;BME280;48550;40.588;49.684;2023-03-15T11:21:14;101652.75;;;15.65;63.07
60371;BME280;48550;40.588;49.684;2023-03-15T11:23:45;101641.72;;;15.43;63.54
60371;BME280;48550;40.588;49.684;2023-03-15T11:26:35;101641.41;;;15.39;64.27
60371;BME280;48550;40.588;49.684;2023-03-15T11:31:48;101627.19;;;15.04;65.97
60371;BME280;48550;40.588;49.684;2023-03-15T11:37:02;101622.53;;;14.76;67.51
60371;BME280;48550;40.588;49.684;2023-03-15T11:39:36;101631.56;;;14.81;68.23
60371;BME280;48550;40.588;49.684;2023-03-15T11:42:12;101619.84;;;14.76;69.10
60371;BME280;48550;40.588;49.684;2023-03-15T11:44:51;101623.41;;;14.53;70.40
60371;BME280;48550;40.588;49.684;2023-03-15T11:49:53;101609.88;;;14.41;71.64
60371;BME280;48550;40.588;49.684;2023-03-15T11:52:25;101610.84;;;14.47;72.04
60371;BME280;48550;40.588;49.684;2023-03-15T11:54:54;101611.06;;;14.34;71.71
60371;BME280;48550;40.588;49.684;2023-03-15T11:57:38;101599.88;;;14.42;72.00
60371;BME280;48550;40.588;49.684;2023-03-15T12:00:16;101610.03;;;14.46;72.53
60371;BME280;48550;40.588;49.684;2023-03-15T12:02:54;101602.72;;;14.47;71.56
60371;BME280;48550;40.588;49.684;2023-03-15T12:05:47;101605.19;;;14.48;70.00
60371;BME280;48550;40.588;49.684;2023-03-15T12:10:45;101602.03;;;14.51;70.33
60371;BME280;48550;40.588;49.684;2023-03-15T12:13:26;101599.09;;;14.53;70.66
60371;BME280;48550;40.588;49.684;2023-03-15T12:15:52;101600.38;;;14.50;70.18
60371;BME280;48550;40.588;49.684;2023-03-15T12:18:31;101595.94;;;14.44;70.82
60371;BME280;48550;40.588;49.684;2023-03-15T12:23:55;101596.25;;;14.36;72.16
60371;BME280;48550;40.588;49.684;2023-03-15T12:26:25;101584.41;;;14.25;72.51
60371;BME280;48550;40.588;49.684;2023-03-15T12:31:23;101577.56;;;14.11;74.10
60371;BME280;48550;40.588;49.684;2023-03-15T12:33:54;101572.78;;;14.13;74.42
60371;BME280;48550;40.588;49.684;2023-03-15T12:36:40;101592.50;;;14.14;73.97
60371;BME280;48550;40.588;49.684;2023-03-15T12:41:41;101597.53;;;13.98;75.60
60371;BME280;48550;40.588;49.684;2023-03-15T12:44:37;101595.28;;;13.95;75.43
60371;BME280;48550;40.588;49.684;2023-03-15T12:47:08;101575.00;;;13.93;74.95
60371;BME280;48550;40.588;49.684;2023-03-15T12:49:39;101590.38;;;13.92;75.67
60371;BME280;48550;40.588;49.684;2023-03-15T12:54:43;101590.84;;;14.01;76.05
60371;BME280;48550;40.588;49.684;2023-03-15T12:57:15;101591.19;;;13.93;75.66
60371;BME280;48550;40.588;49.684;2023-03-15T12:59:54;101580.03;;;13.78;76.92
60371;BME280;48550;40.588;49.684;2023-03-15T13:02:47;101579.53;;;13.69;78.31
60371;BME280;48550;40.588;49.684;2023-03-15T13:08:07;101575.44;;;13.78;78.25
60371;BME280;48550;40.588;49.684;2023-03-15T13:10:39;101571.91;;;13.54;78.20
60371;BME280;48550;40.588;49.684;2023-03-15T13:19:11;101573.16;;;12.92;80.49
60371;BME280;48550;40.588;49.684;2023-03-15T13:29:51;101570.69;;;12.54;85.09
60371;BME280;48550;40.588;49.684;2023-03-15T13:32:18;101576.53;;;12.51;85.42
60371;BME280;48550;40.588;49.684;2023-03-15T13:34:46;101570.53;;;12.49;85.65
60371;BME280;48550;40.588;49.684;2023-03-15T13:37:15;101572.72;;;12.40;87.90
60371;BME280;48550;40.588;49.684;2023-03-15T13:40:03;101568.16;;;12.40;87.55
60371;BME280;48550;40.588;49.684;2023-03-15T13:42:29;101566.81;;;12.31;89.66
60371;BME280;48550;40.588;49.684;2023-03-15T13:47:28;101569.03;;;12.16;92.13
60371;BME280;48550;40.588;49.684;2023-03-15T13:49:55;101568.66;;;12.13;93.62
60371;BME280;48550;40.588;49.684;2023-03-15T13:52:21;101560.56;;;12.13;94.63
60371;BME280;48550;40.588;49.684;2023-03-15T13:54:47;101556.81;;;11.95;95.92